sensor_id;sensor_type;location;lat;lon;timestamp;temperature;humidity
14252;DHT22;7210;51.502;10.722;2023-08-30T00:03:30;12.20;99.90
14252;DHT22;7210;51.502;10.722;2023-08-30T00:10:22;12.00;99.90
14252;DHT22;7210;51.502;10.722;2023-08-30T00:13:02;12.00;99.90
14252;DHT22;7210;51.502;10.722;2023-08-30T00:19:37;12.10;99.90
14252;DHT22;7210;51.502;10.722;2023-08-30T00:26:11;11.90;99.90
14252;DHT22;7210;51.502;10.722;2023-08-30T00:32:44;11.70;99.90
14252;DHT22;7210;51.502;10.722;2023-08-30T00:39:20;11.50;99.90
14252;DHT22;7210;51.502;10.722;2023-08-30T00:45:54;11.50;99.90
14252;DHT22;7210;51.502;10.722;2023-08-30T00:52:28;11.40;99.90
14252;DHT22;7210;51.502;10.722;2023-08-30T01:07:16;11.20;99.90
14252;DHT22;7210;51.502;10.722;2023-08-30T01:13:55;11.20;99.90
14252;DHT22;7210;51.502;10.722;2023-08-30T01:20:34;11.00;99.90
14252;DHT22;7210;51.502;10.722;2023-08-30T01:27:14;11.10;99.90
14252;DHT22;7210;51.502;10.722;2023-08-30T01:29:45;11.10;99.90
14252;DHT22;7210;51.502;10.722;2023-08-30T01:36:20;11.10;99.90
14252;DHT22;7210;51.502;10.722;2023-08-30T01:42:55;11.00;99.90
14252;DHT22;7210;51.502;10.722;2023-08-30T01:49:31;10.90;99.90
14252;DHT22;7210;51.502;10.722;2023-08-30T01:59:54;10.70;99.90
14252;DHT22;7210;51.502;10.722;2023-08-30T02:10:37;10.40;99.90
14252;DHT22;7210;51.502;10.722;2023-08-30T02:20:40;10.10;99.90
14252;DHT22;7210;51.502;10.722;2023-08-30T02:27:13;10.00;99.90
14252;DHT22;7210;51.502;10.722;2023-08-30T02:33:47;9.90;99.90
14252;DHT22;7210;51.502;10.722;2023-08-30T02:36:16;9.90;99.90
14252;DHT22;7210;51.502;10.722;2023-08-30T02:42:49;9.80;99.90
14252;DHT22;7210;51.502;10.722;2023-08-30T02:49:26;9.80;99.90
14252;DHT22;7210;51.502;10.722;2023-08-30T02:56:01;9.70;99.90
14252;DHT22;7210;51.502;10.722;2023-08-30T02:58:28;9.70;99.90
14252;DHT22;7210;51.502;10.722;2023-08-30T03:00:59;9.70;99.90
14252;DHT22;7210;51.502;10.722;2023-08-30T03:07:34;9.60;99.90
14252;DHT22;7210;51.502;10.722;2023-08-30T03:14:10;9.60;99.90
14252;DHT22;7210;51.502;10.722;2023-08-30T03:20:43;9.70;99.90
14252;DHT22;7210;51.502;10.722;2023-08-30T03:27:16;9.70;99.90
14252;DHT22;7210;51.502;10.722;2023-08-30T03:33:53;9.60;99.90
14252;DHT22;7210;51.502;10.722;2023-08-30T03:40:26;9.50;99.90
14252;DHT22;7210;51.502;10.722;2023-08-30T03:47:00;9.50;99.90
14252;DHT22;7210;51.502;10.722;2023-08-30T03:53:36;9.60;99.90
14252;DHT22;7210;51.502;10.722;2023-08-30T04:00:11;9.70;99.90
14252;DHT22;7210;51.502;10.722;2023-08-30T04:10:55;9.40;99.90
14252;DHT22;7210;51.502;10.722;2023-08-30T04:29:49;9.10;99.90
14252;DHT22;7210;51.502;10.722;2023-08-30T04:36:23;9.00;99.90
14252;DHT22;7210;51.502;10.722;2023-08-30T04:51:12;9.00;99.90
14252;DHT22;7210;51.502;10.722;2023-08-30T04:57:08;9.00;99.90
14252;DHT22;7210;51.502;10.722;2023-08-30T04:59:50;9.00;99.90
14252;DHT22;7210;51.502;10.722;2023-08-30T05:09:21;9.00;99.90
14252;DHT22;7210;51.502;10.722;2023-08-30T05:19:02;9.10;99.90
14252;DHT22;7210;51.502;10.722;2023-08-30T05:31:44;9.40;99.90
14252;DHT22;7210;51.502;10.722;2023-08-30T05:34:40;9.50;99.90
14252;DHT22;7210;51.502;10.722;2023-08-30T05:37:26;9.50;99.90
14252;DHT22;7210;51.502;10.722;2023-08-30T05:40:31;9.50;99.90
14252;DHT22;7210;51.502;10.722;2023-08-30T05:43:14;9.60;99.90
14252;DHT22;7210;51.502;10.722;2023-08-30T05:45:45;9.70;99.90
14252;DHT22;7210;51.502;10.722;2023-08-30T05:48:37;9.80;99.90
14252;DHT22;7210;51.502;10.722;2023-08-30T05:55:01;9.80;99.90
14252;DHT22;7210;51.502;10.722;2023-08-30T05:57:29;10.00;99.90
14252;DHT22;7210;51.502;10.722;2023-08-30T05:59:59;10.10;99.90
14252;DHT22;7210;51.502;10.722;2023-08-30T06:02:33;10.10;99.90
14252;DHT22;7210;51.502;10.722;2023-08-30T06:05:14;10.30;99.90
14252;DHT22;7210;51.502;10.722;2023-08-30T06:07:44;10.40;99.90
14252;DHT22;7210;51.502;10.722;2023-08-30T06:10:12;10.50;99.90
14252;DHT22;7210;51.502;10.722;2023-08-30T06:12:50;10.60;99.90
14252;DHT22;7210;51.502;10.722;2023-08-30T06:15:26;10.70;99.90
14252;DHT22;7210;51.502;10.722;2023-08-30T06:18:09;10.70;99.90
14252;DHT22;7210;51.502;10.722;2023-08-30T06:20:44;10.80;99.90
14252;DHT22;7210;51.502;10.722;2023-08-30T06:23:11;10.90;99.90
14252;DHT22;7210;51.502;10.722;2023-08-30T06:29:02;11.10;99.90
14252;DHT22;7210;51.502;10.722;2023-08-30T06:31:38;11.30;99.90
14252;DHT22;7210;51.502;10.722;2023-08-30T06:34:09;11.50;99.90
14252;DHT22;7210;51.502;10.722;2023-08-30T06:36:36;11.70;99.90
14252;DHT22;7210;51.502;10.722;2023-08-30T06:39:14;11.90;99.90
14252;DHT22;7210;51.502;10.722;2023-08-30T06:41:50;11.90;99.90
14252;DHT22;7210;51.502;10.722;2023-08-30T06:44:20;12.10;99.90
14252;DHT22;7210;51.502;10.722;2023-08-30T06:46:47;12.20;99.90
14252;DHT22;7210;51.502;10.722;2023-08-30T06:59:02;12.90;99.90
14252;DHT22;7210;51.502;10.722;2023-08-30T07:01:32;13.10;99.90
14252;DHT22;7210;51.502;10.722;2023-08-30T07:04:25;13.20;99.90
14252;DHT22;7210;51.502;10.722;2023-08-30T07:07:04;13.40;99.90
14252;DHT22;7210;51.502;10.722;2023-08-30T07:09:44;13.40;99.90
14252;DHT22;7210;51.502;10.722;2023-08-30T07:12:20;13.50;99.90
14252;DHT22;7210;51.502;10.722;2023-08-30T07:25:56;13.90;99.90
14252;DHT22;7210;51.502;10.722;2023-08-30T07:28:32;14.10;99.90
14252;DHT22;7210;51.502;10.722;2023-08-30T07:31:14;14.30;99.90
14252;DHT22;7210;51.502;10.722;2023-08-30T07:36:50;14.80;99.90
14252;DHT22;7210;51.502;10.722;2023-08-30T07:39:27;15.00;1.00
14252;DHT22;7210;51.502;10.722;2023-08-30T07:42:19;15.00;1.00
14252;DHT22;7210;51.502;10.722;2023-08-30T07:45:13;15.30;1.00
14252;DHT22;7210;51.502;10.722;2023-08-30T07:47:41;15.30;1.00
14252;DHT22;7210;51.502;10.722;2023-08-30T07:50:14;15.10;1.00
14252;DHT22;7210;51.502;10.722;2023-08-30T07:52:45;15.30;1.00
14252;DHT22;7210;51.502;10.722;2023-08-30T07:55:49;15.40;1.00
14252;DHT22;7210;51.502;10.722;2023-08-30T07:58:17;15.50;1.00
14252;DHT22;7210;51.502;10.722;2023-08-30T08:00:44;15.60;1.00
14252;DHT22;7210;51.502;10.722;2023-08-30T08:06:16;15.90;1.00
14252;DHT22;7210;51.502;10.722;2023-08-30T08:08:56;15.80;1.00
14252;DHT22;7210;51.502;10.722;2023-08-30T08:11:28;15.90;1.00
14252;DHT22;7210;51.502;10.722;2023-08-30T08:13:55;16.00;1.00
14252;DHT22;7210;51.502;10.722;2023-08-30T08:16:26;16.00;1.00
14252;DHT22;7210;51.502;10.722;2023-08-30T08:18:56;15.90;1.00
14252;DHT22;7210;51.502;10.722;2023-08-30T08:21:32;15.90;1.00
14252;DHT22;7210;51.502;10.722;2023-08-30T08:24:02;16.00;1.00
14252;DHT22;7210;51.502;10.722;2023-08-30T08:27:03;16.00;1.00
14252;DHT22;7210;51.502;10.722;2023-08-30T08:29:32;16.00;1.00
14252;DHT22;7210;51.502;10.722;2023-08-30T08:35:32;15.90;1.00
14252;DHT22;7210;51.502;10.722;2023-08-30T08:41:30;16.10;1.00
14252;DHT22;7210;51.502;10.722;2023-08-30T08:44:10;16.20;1.00
14252;DHT22;7210;51.502;10.722;2023-08-30T08:47:07;16.20;1.00
14252;DHT22;7210;51.502;10.722;2023-08-30T08:49:35;16.20;1.00
14252;DHT22;7210;51.502;10.722;2023-08-30T08:52:08;16.20;1.00
14252;DHT22;7210;51.502;10.722;2023-08-30T08:57:53;16.20;1.00
14252;DHT22;7210;51.502;10.722;2023-08-30T09:00:23;16.20;1.00
14252;DHT22;7210;51.502;10.722;2023-08-30T09:02:51;16.30;1.00
14252;DHT22;7210;51.502;10.722;2023-08-30T09:13:31;16.80;1.00
14252;DHT22;7210;51.502;10.722;2023-08-30T09:16:00;17.00;1.00
14252;DHT22;7210;51.502;10.722;2023-08-30T09:21:51;17.20;1.00
14252;DHT22;7210;51.502;10.722;2023-08-30T09:24:49;17.40;1.00
14252;DHT22;7210;51.502;10.722;2023-08-30T09:27:49;17.60;1.00
14252;DHT22;7210;51.502;10.722;2023-08-30T09:30:48;17.40;1.00
14252;DHT22;7210;51.502;10.722;2023-08-30T09:33:45;17.60;1.00
14252;DHT22;7210;51.502;10.722;2023-08-30T09:36:43;17.90;1.00
14252;DHT22;7210;51.502;10.722;2023-08-30T09:39:32;18.00;1.00
14252;DHT22;7210;51.502;10.722;2023-08-30T09:42:26;18.20;1.00
14252;DHT22;7210;51.502;10.722;2023-08-30T09:44:56;18.40;1.00
14252;DHT22;7210;51.502;10.722;2023-08-30T09:47:32;18.50;1.00
14252;DHT22;7210;51.502;10.722;2023-08-30T09:50:17;18.60;1.00
14252;DHT22;7210;51.502;10.722;2023-08-30T09:56:37;18.80;1.00
14252;DHT22;7210;51.502;10.722;2023-08-30T09:59:06;19.20;1.00
14252;DHT22;7210;51.502;10.722;2023-08-30T10:05:58;19.40;1.00
14252;DHT22;7210;51.502;10.722;2023-08-30T10:08:49;19.30;1.00
14252;DHT22;7210;51.502;10.722;2023-08-30T10:11:19;19.40;1.00
14252;DHT22;7210;51.502;10.722;2023-08-30T10:14:07;19.50;1.00
14252;DHT22;7210;51.502;10.722;2023-08-30T10:16:40;19.40;1.00
14252;DHT22;7210;51.502;10.722;2023-08-30T10:19:15;19.40;1.00
14252;DHT22;7210;51.502;10.722;2023-08-30T10:21:58;19.50;1.00
14252;DHT22;7210;51.502;10.722;2023-08-30T10:24:40;19.50;1.00
14252;DHT22;7210;51.502;10.722;2023-08-30T10:27:21;19.50;1.00
14252;DHT22;7210;51.502;10.722;2023-08-30T10:30:14;19.50;1.00
14252;DHT22;7210;51.502;10.722;2023-08-30T10:32:44;19.80;1.00
14252;DHT22;7210;51.502;10.722;2023-08-30T10:53:38;20.50;1.00
14252;DHT22;7210;51.502;10.722;2023-08-30T10:56:27;21.00;1.00
14252;DHT22;7210;51.502;10.722;2023-08-30T10:59:19;21.50;1.00
14252;DHT22;7210;51.502;10.722;2023-08-30T11:01:56;21.80;1.00
14252;DHT22;7210;51.502;10.722;2023-08-30T11:04:32;22.00;1.00
14252;DHT22;7210;51.502;10.722;2023-08-30T11:10:49;21.90;1.00
14252;DHT22;7210;51.502;10.722;2023-08-30T11:13:38;22.00;1.00
14252;DHT22;7210;51.502;10.722;2023-08-30T11:16:24;21.60;1.00
14252;DHT22;7210;51.502;10.722;2023-08-30T11:19:08;22.00;1.00
14252;DHT22;7210;51.502;10.722;2023-08-30T11:21:44;21.80;1.00
14252;DHT22;7210;51.502;10.722;2023-08-30T11:24:12;21.60;1.00
14252;DHT22;7210;51.502;10.722;2023-08-30T11:26:44;21.80;1.00
14252;DHT22;7210;51.502;10.722;2023-08-30T11:35:38;22.00;1.00
14252;DHT22;7210;51.502;10.722;2023-08-30T11:42:31;21.90;1.00
14252;DHT22;7210;51.502;10.722;2023-08-30T11:49:21;22.00;1.00
14252;DHT22;7210;51.502;10.722;2023-08-30T11:51:50;22.00;1.00
14252;DHT22;7210;51.502;10.722;2023-08-30T11:54:26;22.20;1.00
14252;DHT22;7210;51.502;10.722;2023-08-30T11:56:56;22.30;1.00
14252;DHT22;7210;51.502;10.722;2023-08-30T11:59:26;22.30;1.00
14252;DHT22;7210;51.502;10.722;2023-08-30T12:02:19;22.30;1.00
14252;DHT22;7210;51.502;10.722;2023-08-30T12:04:58;22.30;1.00
14252;DHT22;7210;51.502;10.722;2023-08-30T12:10:28;22.30;1.00
14252;DHT22;7210;51.502;10.722;2023-08-30T12:13:26;22.10;1.00
14252;DHT22;7210;51.502;10.722;2023-08-30T12:19:37;22.20;1.00
14252;DHT22;7210;51.502;10.722;2023-08-30T12:22:09;22.40;1.00
14252;DHT22;7210;51.502;10.722;2023-08-30T12:25:01;22.10;1.00
14252;DHT22;7210;51.502;10.722;2023-08-30T12:27:29;22.10;1.00
14252;DHT22;7210;51.502;10.722;2023-08-30T12:30:08;21.90;1.00
14252;DHT22;7210;51.502;10.722;2023-08-30T12:35:59;21.70;1.00
14252;DHT22;7210;51.502;10.722;2023-08-30T12:38:33;21.70;1.00
14252;DHT22;7210;51.502;10.722;2023-08-30T12:45:08;21.80;1.00
14252;DHT22;7210;51.502;10.722;2023-08-30T12:48:07;22.00;1.00
14252;DHT22;7210;51.502;10.722;2023-08-30T12:50:38;22.00;1.00
14252;DHT22;7210;51.502;10.722;2023-08-30T12:53:06;22.00;1.00
14252;DHT22;7210;51.502;10.722;2023-08-30T12:56:09;21.80;1.00
14252;DHT22;7210;51.502;10.722;2023-08-30T12:58:36;21.80;1.00
14252;DHT22;7210;51.502;10.722;2023-08-30T13:01:03;21.80;1.00
14252;DHT22;7210;51.502;10.722;2023-08-30T13:03:31;21.60;1.00
14252;DHT22;7210;51.502;10.722;2023-08-30T13:05:58;21.80;1.00
14252;DHT22;7210;51.502;10.722;2023-08-30T13:08:32;22.10;1.00
14252;DHT22;7210;51.502;10.722;2023-08-30T13:11:27;22.10;1.00
14252;DHT22;7210;51.502;10.722;2023-08-30T13:13:56;22.20;1.00
14252;DHT22;7210;51.502;10.722;2023-08-30T13:16:55;22.10;1.00
14252;DHT22;7210;51.502;10.722;2023-08-30T13:19:32;22.10;1.00
14252;DHT22;7210;51.502;10.722;2023-08-30T13:22:14;21.90;1.00
14252;DHT22;7210;51.502;10.722;2023-08-30T13:24:44;22.00;1.00
14252;DHT22;7210;51.502;10.722;2023-08-30T13:27:27;22.20;1.00
14252;DHT22;7210;51.502;10.722;2023-08-30T13:30:13;22.20;1.00
14252;DHT22;7210;51.502;10.722;2023-08-30T13:32:44;22.10;1.00
14252;DHT22;7210;51.502;10.722;2023-08-30T13:35:14;22.10;1.00
14252;DHT22;7210;51.502;10.722;2023-08-30T13:37:41;22.30;1.00
14252;DHT22;7210;51.502;10.722;2023-08-30T13:40:14;22.00;1.00
14252;DHT22;7210;51.502;10.722;2023-08-30T13:43:09;21.90;1.00
14252;DHT22;7210;51.502;10.722;2023-08-30T13:46:01;21.90;1.00
14252;DHT22;7210;51.502;10.722;2023-08-30T13:48:38;22.00;1.00
14252;DHT22;7210;51.502;10.722;2023-08-30T13:51:14;21.90;1.00
14252;DHT22;7210;51.502;10.722;2023-08-30T13:54:07;21.70;1.00
14252;DHT22;7210;51.502;10.722;2023-08-30T13:56:38;21.60;1.00
14252;DHT22;7210;51.502;10.722;2023-08-30T13:59:09;21.60;1.00
14252;DHT22;7210;51.502;10.722;2023-08-30T14:01:38;21.60;1.00
14252;DHT22;7210;51.502;10.722;2023-08-30T14:04:20;21.30;1.00
14252;DHT22;7210;51.502;10.722;2023-08-30T14:06:56;21.00;1.00
14252;DHT22;7210;51.502;10.722;2023-08-30T14:15:57;20.20;1.00
14252;DHT22;7210;51.502;10.722;2023-08-30T14:18:25;20.00;1.00
14252;DHT22;7210;51.502;10.722;2023-08-30T14:21:25;19.70;1.00
14252;DHT22;7210;51.502;10.722;2023-08-30T14:23:56;19.30;1.00
14252;DHT22;7210;51.502;10.722;2023-08-30T14:26:38;19.20;1.00
14252;DHT22;7210;51.502;10.722;2023-08-30T14:29:14;19.10;1.00
14252;DHT22;7210;51.502;10.722;2023-08-30T14:31:43;19.10;1.00
14252;DHT22;7210;51.502;10.722;2023-08-30T14:34:31;19.00;1.00
14252;DHT22;7210;51.502;10.722;2023-08-30T14:37:14;19.00;1.00
14252;DHT22;7210;51.502;10.722;2023-08-30T14:39:41;19.20;1.00
14252;DHT22;7210;51.502;10.722;2023-08-30T14:42:08;19.40;1.00
14252;DHT22;7210;51.502;10.722;2023-08-30T14:44:36;19.70;1.00
14252;DHT22;7210;51.502;10.722;2023-08-30T14:47:05;20.00;1.00
14252;DHT22;7210;51.502;10.722;2023-08-30T14:49:32;20.40;1.00
14252;DHT22;7210;51.502;10.722;2023-08-30T14:51:59;20.70;1.00
14252;DHT22;7210;51.502;10.722;2023-08-30T14:54:27;21.00;1.00
14252;DHT22;7210;51.502;10.722;2023-08-30T14:56:54;21.20;1.00
14252;DHT22;7210;51.502;10.722;2023-08-30T14:59:21;21.40;1.00
14252;DHT22;7210;51.502;10.722;2023-08-30T15:01:50;21.20;1.00
14252;DHT22;7210;51.502;10.722;2023-08-30T15:04:18;21.20;1.00
14252;DHT22;7210;51.502;10.722;2023-08-30T15:06:46;21.20;1.00
14252;DHT22;7210;51.502;10.722;2023-08-30T15:09:14;21.30;1.00
14252;DHT22;7210;51.502;10.722;2023-08-30T15:11:41;21.30;1.00
14252;DHT22;7210;51.502;10.722;2023-08-30T15:14:09;21.20;1.00
14252;DHT22;7210;51.502;10.722;2023-08-30T15:16:36;21.10;1.00
14252;DHT22;7210;51.502;10.722;2023-08-30T15:19:03;20.90;1.00
14252;DHT22;7210;51.502;10.722;2023-08-30T15:21:32;21.00;1.00
14252;DHT22;7210;51.502;10.722;2023-08-30T15:23:59;21.20;1.00
14252;DHT22;7210;51.502;10.722;2023-08-30T15:26:32;21.30;1.00
14252;DHT22;7210;51.502;10.722;2023-08-30T15:28:59;21.50;1.00
14252;DHT22;7210;51.502;10.722;2023-08-30T15:31:27;21.60;1.00
14252;DHT22;7210;51.502;10.722;2023-08-30T15:33:54;21.60;1.00
14252;DHT22;7210;51.502;10.722;2023-08-30T15:36:21;21.50;1.00
14252;DHT22;7210;51.502;10.722;2023-08-30T15:38:50;21.50;1.00
14252;DHT22;7210;51.502;10.722;2023-08-30T15:41:17;21.60;1.00
14252;DHT22;7210;51.502;10.722;2023-08-30T15:43:44;21.50;1.00
14252;DHT22;7210;51.502;10.722;2023-08-30T15:46:12;21.60;1.00
14252;DHT22;7210;51.502;10.722;2023-08-30T15:48:40;21.50;1.00
14252;DHT22;7210;51.502;10.722;2023-08-30T15:51:07;21.40;1.00
14252;DHT22;7210;51.502;10.722;2023-08-30T15:53:35;21.40;1.00
14252;DHT22;7210;51.502;10.722;2023-08-30T15:56:09;21.50;1.00
14252;DHT22;7210;51.502;10.722;2023-08-30T15:58:36;21.40;1.00
14252;DHT22;7210;51.502;10.722;2023-08-30T16:01:04;21.20;1.00
14252;DHT22;7210;51.502;10.722;2023-08-30T16:03:31;21.20;1.00
14252;DHT22;7210;51.502;10.722;2023-08-30T16:06:01;21.10;1.00
14252;DHT22;7210;51.502;10.722;2023-08-30T16:08:29;21.10;1.00
14252;DHT22;7210;51.502;10.722;2023-08-30T16:11:02;21.00;1.00
14252;DHT22;7210;51.502;10.722;2023-08-30T16:13:30;20.80;1.00
14252;DHT22;7210;51.502;10.722;2023-08-30T16:15:58;20.60;1.00
14252;DHT22;7210;51.502;10.722;2023-08-30T16:18:25;20.50;1.00
14252;DHT22;7210;51.502;10.722;2023-08-30T16:20:53;20.50;1.00
14252;DHT22;7210;51.502;10.722;2023-08-30T16:23:20;20.50;1.00
14252;DHT22;7210;51.502;10.722;2023-08-30T16:25:47;20.30;1.00
14252;DHT22;7210;51.502;10.722;2023-08-30T16:28:26;20.30;1.00
14252;DHT22;7210;51.502;10.722;2023-08-30T16:34:39;20.10;1.00
14252;DHT22;7210;51.502;10.722;2023-08-30T16:37:14;20.00;1.00
14252;DHT22;7210;51.502;10.722;2023-08-30T16:44:43;19.90;1.00
14252;DHT22;7210;51.502;10.722;2023-08-30T16:51:51;19.50;1.00
14252;DHT22;7210;51.502;10.722;2023-08-30T16:57:35;19.40;1.00
14252;DHT22;7210;51.502;10.722;2023-08-30T17:00:02;19.30;1.00
14252;DHT22;7210;51.502;10.722;2023-08-30T17:20:38;18.70;1.00
14252;DHT22;7210;51.502;10.722;2023-08-30T17:27:12;18.70;1.00
14252;DHT22;7210;51.502;10.722;2023-08-30T17:43:06;18.30;1.00
14252;DHT22;7210;51.502;10.722;2023-08-30T17:53:05;18.10;1.00
14252;DHT22;7210;51.502;10.722;2023-08-30T17:59:40;18.10;1.00
14252;DHT22;7210;51.502;10.722;2023-08-30T18:06:14;18.00;1.00
14252;DHT22;7210;51.502;10.722;2023-08-30T18:12:48;17.90;1.00
14252;DHT22;7210;51.502;10.722;2023-08-30T18:22:49;17.90;1.00
14252;DHT22;7210;51.502;10.722;2023-08-30T18:29:43;17.80;1.00
14252;DHT22;7210;51.502;10.722;2023-08-30T18:32:14;17.60;1.00
14252;DHT22;7210;51.502;10.722;2023-08-30T18:35:07;17.40;1.00
14252;DHT22;7210;51.502;10.722;2023-08-30T18:37:45;17.20;1.00
14252;DHT22;7210;51.502;10.722;2023-08-30T18:43:39;16.90;1.00
14252;DHT22;7210;51.502;10.722;2023-08-30T18:46:20;16.80;1.00
14252;DHT22;7210;51.502;10.722;2023-08-30T18:48:48;16.70;1.00
14252;DHT22;7210;51.502;10.722;2023-08-30T18:51:37;16.70;1.00
14252;DHT22;7210;51.502;10.722;2023-08-30T18:57:46;16.60;1.00
14252;DHT22;7210;51.502;10.722;2023-08-30T19:00:15;16.50;1.00
14252;DHT22;7210;51.502;10.722;2023-08-30T19:02:43;16.50;1.00
14252;DHT22;7210;51.502;10.722;2023-08-30T19:05:20;16.20;1.00
14252;DHT22;7210;51.502;10.722;2023-08-30T19:08:07;16.00;1.00
14252;DHT22;7210;51.502;10.722;2023-08-30T19:10:44;15.80;1.00
14252;DHT22;7210;51.502;10.722;2023-08-30T19:13:11;15.80;1.00
14252;DHT22;7210;51.502;10.722;2023-08-30T19:15:40;15.80;1.00
14252;DHT22;7210;51.502;10.722;2023-08-30T19:18:08;15.70;1.00
14252;DHT22;7210;51.502;10.722;2023-08-30T19:20:36;15.60;1.00
14252;DHT22;7210;51.502;10.722;2023-08-30T19:23:03;15.40;1.00
14252;DHT22;7210;51.502;10.722;2023-08-30T19:25:31;15.40;1.00
14252;DHT22;7210;51.502;10.722;2023-08-30T19:28:02;15.30;1.00
14252;DHT22;7210;51.502;10.722;2023-08-30T19:30:30;15.20;1.00
14252;DHT22;7210;51.502;10.722;2023-08-30T19:32:58;15.20;1.00
14252;DHT22;7210;51.502;10.722;2023-08-30T19:35:26;15.10;1.00
14252;DHT22;7210;51.502;10.722;2023-08-30T19:37:53;15.10;99.90
14252;DHT22;7210;51.502;10.722;2023-08-30T19:40:20;15.00;99.90
14252;DHT22;7210;51.502;10.722;2023-08-30T19:42:47;15.00;99.90
14252;DHT22;7210;51.502;10.722;2023-08-30T19:45:15;15.00;99.90
14252;DHT22;7210;51.502;10.722;2023-08-30T19:47:43;15.00;99.90
14252;DHT22;7210;51.502;10.722;2023-08-30T19:50:11;14.90;99.90
14252;DHT22;7210;51.502;10.722;2023-08-30T19:52:40;14.90;99.90
14252;DHT22;7210;51.502;10.722;2023-08-30T19:55:08;14.90;99.90
14252;DHT22;7210;51.502;10.722;2023-08-30T19:57:36;14.90;99.90
14252;DHT22;7210;51.502;10.722;2023-08-30T20:00:04;14.90;99.90
14252;DHT22;7210;51.502;10.722;2023-08-30T20:02:38;15.00;99.90
14252;DHT22;7210;51.502;10.722;2023-08-30T20:05:05;14.90;99.90
14252;DHT22;7210;51.502;10.722;2023-08-30T20:07:35;14.90;99.90
14252;DHT22;7210;51.502;10.722;2023-08-30T20:10:03;14.90;99.90
14252;DHT22;7210;51.502;10.722;2023-08-30T20:12:31;14.90;99.90
14252;DHT22;7210;51.502;10.722;2023-08-30T20:14:58;14.80;99.90
14252;DHT22;7210;51.502;10.722;2023-08-30T20:17:26;14.70;99.90
14252;DHT22;7210;51.502;10.722;2023-08-30T20:19:56;14.70;99.90
14252;DHT22;7210;51.502;10.722;2023-08-30T20:22:23;14.60;99.90
14252;DHT22;7210;51.502;10.722;2023-08-30T20:24:52;14.60;99.90
14252;DHT22;7210;51.502;10.722;2023-08-30T20:27:21;14.50;99.90
14252;DHT22;7210;51.502;10.722;2023-08-30T20:29:49;14.50;99.90
14252;DHT22;7210;51.502;10.722;2023-08-30T20:32:16;14.50;99.90
14252;DHT22;7210;51.502;10.722;2023-08-30T20:34:44;14.50;99.90
14252;DHT22;7210;51.502;10.722;2023-08-30T20:37:11;14.50;99.90
14252;DHT22;7210;51.502;10.722;2023-08-30T20:39:39;14.40;99.90
14252;DHT22;7210;51.502;10.722;2023-08-30T20:42:07;14.30;99.90
14252;DHT22;7210;51.502;10.722;2023-08-30T20:44:35;14.20;99.90
14252;DHT22;7210;51.502;10.722;2023-08-30T20:47:02;14.10;99.90
14252;DHT22;7210;51.502;10.722;2023-08-30T20:49:30;14.10;99.90
14252;DHT22;7210;51.502;10.722;2023-08-30T20:51:57;14.00;99.90
14252;DHT22;7210;51.502;10.722;2023-08-30T20:54:25;14.00;99.90
14252;DHT22;7210;51.502;10.722;2023-08-30T20:56:52;13.80;99.90
14252;DHT22;7210;51.502;10.722;2023-08-30T20:59:21;13.90;99.90
14252;DHT22;7210;51.502;10.722;2023-08-30T21:01:48;13.90;99.90
14252;DHT22;7210;51.502;10.722;2023-08-30T21:04:15;13.80;99.90
14252;DHT22;7210;51.502;10.722;2023-08-30T21:06:43;13.80;99.90
14252;DHT22;7210;51.502;10.722;2023-08-30T21:09:10;13.70;99.90
14252;DHT22;7210;51.502;10.722;2023-08-30T21:11:37;13.70;99.90
14252;DHT22;7210;51.502;10.722;2023-08-30T21:14:04;13.60;99.90
14252;DHT22;7210;51.502;10.722;2023-08-30T21:16:33;13.50;99.90
14252;DHT22;7210;51.502;10.722;2023-08-30T21:19:00;13.50;99.90
14252;DHT22;7210;51.502;10.722;2023-08-30T21:21:28;13.50;99.90
14252;DHT22;7210;51.502;10.722;2023-08-30T21:23:56;13.50;99.90
14252;DHT22;7210;51.502;10.722;2023-08-30T21:26:25;13.50;99.90
14252;DHT22;7210;51.502;10.722;2023-08-30T21:28:53;13.50;99.90
14252;DHT22;7210;51.502;10.722;2023-08-30T21:31:20;13.40;99.90
14252;DHT22;7210;51.502;10.722;2023-08-30T21:33:51;13.40;99.90
14252;DHT22;7210;51.502;10.722;2023-08-30T21:36:20;13.40;99.90
14252;DHT22;7210;51.502;10.722;2023-08-30T21:38:47;13.40;99.90
14252;DHT22;7210;51.502;10.722;2023-08-30T21:41:20;13.40;99.90
14252;DHT22;7210;51.502;10.722;2023-08-30T21:43:47;13.40;99.90
14252;DHT22;7210;51.502;10.722;2023-08-30T21:46:14;13.30;99.90
14252;DHT22;7210;51.502;10.722;2023-08-30T21:48:44;13.40;99.90
14252;DHT22;7210;51.502;10.722;2023-08-30T21:51:13;13.40;99.90
14252;DHT22;7210;51.502;10.722;2023-08-30T21:53:40;13.40;99.90
14252;DHT22;7210;51.502;10.722;2023-08-30T21:56:07;13.40;99.90
14252;DHT22;7210;51.502;10.722;2023-08-30T21:58:34;13.40;99.90
14252;DHT22;7210;51.502;10.722;2023-08-30T22:01:02;13.40;99.90
14252;DHT22;7210;51.502;10.722;2023-08-30T22:03:29;13.40;99.90
14252;DHT22;7210;51.502;10.722;2023-08-30T22:06:08;13.50;99.90
14252;DHT22;7210;51.502;10.722;2023-08-30T22:08:37;13.50;99.90
14252;DHT22;7210;51.502;10.722;2023-08-30T22:11:07;13.50;99.90
14252;DHT22;7210;51.502;10.722;2023-08-30T22:13:36;13.50;99.90
14252;DHT22;7210;51.502;10.722;2023-08-30T22:16:04;13.50;99.90
14252;DHT22;7210;51.502;10.722;2023-08-30T22:18:31;13.50;99.90
14252;DHT22;7210;51.502;10.722;2023-08-30T22:20:59;13.50;99.90
14252;DHT22;7210;51.502;10.722;2023-08-30T22:23:39;13.50;99.90
14252;DHT22;7210;51.502;10.722;2023-08-30T22:26:07;13.40;99.90
14252;DHT22;7210;51.502;10.722;2023-08-30T22:28:34;13.40;99.90
14252;DHT22;7210;51.502;10.722;2023-08-30T22:31:01;13.40;99.90
14252;DHT22;7210;51.502;10.722;2023-08-30T22:33:28;13.40;99.90
14252;DHT22;7210;51.502;10.722;2023-08-30T22:36:02;13.40;99.90
14252;DHT22;7210;51.502;10.722;2023-08-30T22:38:31;13.40;99.90
14252;DHT22;7210;51.502;10.722;2023-08-30T22:41:09;13.30;99.90
14252;DHT22;7210;51.502;10.722;2023-08-30T22:43:37;13.30;99.90
14252;DHT22;7210;51.502;10.722;2023-08-30T22:46:04;13.20;99.90
14252;DHT22;7210;51.502;10.722;2023-08-30T22:48:32;13.20;99.90
14252;DHT22;7210;51.502;10.722;2023-08-30T22:51:01;13.20;99.90
14252;DHT22;7210;51.502;10.722;2023-08-30T22:53:30;13.20;99.90
14252;DHT22;7210;51.502;10.722;2023-08-30T22:56:04;13.20;99.90
14252;DHT22;7210;51.502;10.722;2023-08-30T22:58:36;13.20;99.90
14252;DHT22;7210;51.502;10.722;2023-08-30T23:01:06;13.20;99.90
14252;DHT22;7210;51.502;10.722;2023-08-30T23:03:34;13.10;99.90
14252;DHT22;7210;51.502;10.722;2023-08-30T23:06:02;13.10;99.90
14252;DHT22;7210;51.502;10.722;2023-08-30T23:08:29;13.10;99.90
14252;DHT22;7210;51.502;10.722;2023-08-30T23:10:57;13.10;99.90
14252;DHT22;7210;51.502;10.722;2023-08-30T23:13:25;13.20;99.90
14252;DHT22;7210;51.502;10.722;2023-08-30T23:15:56;13.20;99.90
14252;DHT22;7210;51.502;10.722;2023-08-30T23:18:24;13.20;99.90
14252;DHT22;7210;51.502;10.722;2023-08-30T23:20:56;13.20;99.90
14252;DHT22;7210;51.502;10.722;2023-08-30T23:23:23;13.10;99.90
14252;DHT22;7210;51.502;10.722;2023-08-30T23:25:51;13.10;99.90